Time;durP1;ratioP1;P1;durP2;ratioP2;P2;SDS_P1;SDS_P2;PMS_P1;PMS_P2;Temp;Humidity;BMP_temperature;BMP_pressure;BME280_temperature;BME280_humidity;BME280_pressure;Samples;Min_cycle;Max_cycle;Signal;HPM_P1;HPM_P2
2021/08/19 00:01:41;;;;;;;11.60;10.40;;;17.80;99.90;;;;;;5036030;28;20054;-61
2021/08/19 00:04:07;;;;;;;11.55;10.23;;;17.80;99.90;;;;;;5035934;28;20029;-61
2021/08/19 00:06:32;;;;;;;11.63;9.70;;;17.80;99.90;;;;;;5053964;28;20025;-61
2021/08/19 00:08:59;;;;;;;12.43;9.68;;;17.80;99.90;;;;;;5053633;28;20021;-61
2021/08/19 00:11:25;;;;;;;11.75;8.30;;;17.80;99.90;;;;;;5053487;28;20037;-62
2021/08/19 00:13:50;;;;;;;12.20;9.50;;;17.90;99.90;;;;;;5053752;28;20020;-61
2021/08/19 00:16:16;;;;;;;10.52;9.40;;;17.80;99.90;;;;;;5053654;28;20044;-61
2021/08/19 00:18:41;;;;;;;10.82;9.23;;;17.90;99.90;;;;;;5053538;28;20104;-61
2021/08/19 00:21:08;;;;;;;11.05;9.60;;;17.90;99.90;;;;;;5035671;28;20079;-61
2021/08/19 00:23:35;;;;;;;11.63;10.27;;;17.90;99.90;;;;;;5053493;28;20480;-61
2021/08/19 00:26:01;;;;;;;11.70;10.32;;;17.90;99.90;;;;;;5053271;28;20476;-61
2021/08/19 00:28:26;;;;;;;12.52;9.73;;;17.90;99.90;;;;;;5053078;28;20040;-61
2021/08/19 00:30:52;;;;;;;14.13;11.50;;;17.90;99.90;;;;;;5053337;28;20033;-61
2021/08/19 00:33:17;;;;;;;12.23;10.25;;;17.90;99.90;;;;;;5053425;28;20086;-61
2021/08/19 00:35:42;;;;;;;14.15;11.38;;;17.90;99.90;;;;;;5053378;28;20071;-61
2021/08/19 00:38:08;;;;;;;13.93;11.93;;;17.80;99.90;;;;;;5053158;28;20067;-61
2021/08/19 00:40:34;;;;;;;18.35;13.43;;;17.80;99.90;;;;;;5053455;28;20021;-61
2021/08/19 00:43:01;;;;;;;12.90;11.40;;;17.80;99.90;;;;;;5035343;28;20059;-61
2021/08/19 00:45:29;;;;;;;16.52;12.50;;;17.80;99.90;;;;;;5053040;28;20045;-61
2021/08/19 00:47:54;;;;;;;17.10;13.05;;;17.80;99.90;;;;;;5035267;28;20021;-61
2021/08/19 00:50:20;;;;;;;13.90;12.40;;;17.90;99.90;;;;;;5053059;28;20033;-61
2021/08/19 00:52:45;;;;;;;17.92;13.68;;;17.80;99.90;;;;;;5052759;28;20447;-61
2021/08/19 00:55:14;;;;;;;14.40;12.05;;;17.80;99.90;;;;;;5053029;28;20025;-61
2021/08/19 00:57:40;;;;;;;15.43;13.80;;;17.80;99.90;;;;;;5035093;28;20021;-61
2021/08/19 01:00:08;;;;;;;16.38;12.85;;;17.80;99.90;;;;;;5034992;28;20484;-61
2021/08/19 01:02:34;;;;;;;16.40;13.20;;;17.80;99.90;;;;;;5052914;28;20025;-61
2021/08/19 01:05:00;;;;;;;14.93;12.68;;;17.80;99.90;;;;;;5052859;28;20075;-61
2021/08/19 01:07:25;;;;;;;17.83;13.60;;;17.80;99.90;;;;;;5052748;28;20120;-61
2021/08/19 01:09:51;;;;;;;16.25;13.65;;;17.80;99.90;;;;;;5052907;28;20064;-61
2021/08/19 01:12:17;;;;;;;17.38;14.27;;;17.90;99.90;;;;;;5052490;28;20098;-61
2021/08/19 01:14:45;;;;;;;21.25;14.32;;;17.90;99.90;;;;;;5052829;28;20384;-61
2021/08/19 01:17:13;;;;;;;15.73;13.73;;;17.90;99.90;;;;;;5052923;28;20028;-61
2021/08/19 01:19:39;;;;;;;21.30;16.50;;;17.90;99.90;;;;;;5052809;28;20017;-61
2021/08/19 01:22:05;;;;;;;18.27;14.65;;;17.80;99.90;;;;;;5052457;28;20362;-61
2021/08/19 01:24:31;;;;;;;16.52;14.27;;;17.80;99.90;;;;;;5052848;28;20029;-61
2021/08/19 01:26:57;;;;;;;20.60;14.23;;;17.80;99.90;;;;;;5052289;28;20025;-61
2021/08/19 01:29:24;;;;;;;18.77;14.73;;;17.80;99.90;;;;;;5034654;28;20022;-61
2021/08/19 01:32:02;;;;;;;20.17;15.30;;;17.90;99.90;;;;;;5052241;28;20026;-61
2021/08/19 01:34:29;;;;;;;18.23;15.05;;;17.90;99.90;;;;;;5052516;28;20535;-61
2021/08/19 01:36:55;;;;;;;20.02;16.42;;;17.80;99.90;;;;;;5034731;28;20025;-61
2021/08/19 01:39:21;;;;;;;18.90;15.50;;;17.90;99.90;;;;;;5053165;28;20021;-61
2021/08/19 01:41:46;;;;;;;21.30;14.90;;;17.80;99.90;;;;;;5056314;28;20051;-60
2021/08/19 01:44:12;;;;;;;17.75;13.85;;;17.80;99.90;;;;;;5056464;28;20037;-61
2021/08/19 01:46:38;;;;;;;17.63;15.02;;;17.80;99.90;;;;;;5038935;28;20036;-61
2021/08/19 01:49:03;;;;;;;20.67;15.68;;;17.80;99.90;;;;;;5038524;28;20036;-60
2021/08/19 01:51:29;;;;;;;18.02;13.73;;;17.80;99.90;;;;;;5056288;28;20025;-61
2021/08/19 01:53:54;;;;;;;17.77;14.15;;;17.80;99.90;;;;;;5056240;28;20025;-61
2021/08/19 01:56:24;;;;;;;19.38;15.32;;;17.80;99.90;;;;;;5038519;28;20043;-61
2021/08/19 01:58:54;;;;;;;21.27;16.08;;;17.80;99.90;;;;;;5056010;28;20025;-61
2021/08/19 02:01:21;;;;;;;20.75;15.23;;;17.80;99.90;;;;;;5056635;28;20029;-61
2021/08/19 02:03:48;;;;;;;21.02;16.05;;;17.80;99.90;;;;;;5056076;28;20036;-61
2021/08/19 02:06:14;;;;;;;19.42;15.80;;;17.80;99.90;;;;;;5056160;28;20026;-61
2021/08/19 02:08:40;;;;;;;18.98;14.60;;;17.80;99.90;;;;;;5056227;28;20032;-61
2021/08/19 02:11:05;;;;;;;16.17;13.85;;;17.80;99.90;;;;;;5055913;28;20469;-61
2021/08/19 02:13:31;;;;;;;18.15;14.60;;;17.90;99.90;;;;;;5055893;28;20029;-61
2021/08/19 02:15:58;;;;;;;18.08;13.35;;;17.80;99.90;;;;;;5055961;28;20025;-61
2021/08/19 02:18:23;;;;;;;20.30;16.42;;;17.80;99.90;;;;;;5037868;28;20469;-61
2021/08/19 02:20:49;;;;;;;23.02;16.88;;;17.90;99.90;;;;;;5055910;28;20146;-61
2021/08/19 02:23:14;;;;;;;23.23;16.85;;;17.80;99.90;;;;;;5037996;28;20082;-61
2021/08/19 02:25:40;;;;;;;26.70;16.70;;;17.80;99.90;;;;;;5055835;28;20037;-61
2021/08/19 02:28:05;;;;;;;21.52;16.60;;;17.80;99.90;;;;;;5055539;28;20025;-61
2021/08/19 02:30:31;;;;;;;23.13;16.65;;;17.80;99.90;;;;;;5037835;28;20106;-61
2021/08/19 02:32:56;;;;;;;23.08;17.52;;;17.80;99.90;;;;;;5055371;28;20127;-61
2021/08/19 02:35:26;;;;;;;18.48;15.07;;;17.70;99.90;;;;;;5055668;28;20037;-61
2021/08/19 02:37:55;;;;;;;23.08;17.42;;;17.80;99.90;;;;;;5055738;28;20571;-61
2021/08/19 02:40:23;;;;;;;19.52;15.43;;;17.80;99.90;;;;;;5055507;28;20071;-61
2021/08/19 02:42:48;;;;;;;19.75;14.38;;;17.80;99.90;;;;;;5055847;28;20530;-61
2021/08/19 02:45:14;;;;;;;23.75;15.68;;;17.80;99.90;;;;;;5055032;28;20052;-61
2021/08/19 02:47:39;;;;;;;24.27;17.05;;;17.80;99.90;;;;;;5055253;28;20671;-61
2021/08/19 02:50:05;;;;;;;22.33;16.60;;;17.70;99.90;;;;;;5055085;28;20043;-61
2021/08/19 02:52:31;;;;;;;24.05;16.65;;;17.70;99.90;;;;;;5062388;28;20021;-61
2021/08/19 02:54:57;;;;;;;22.98;16.83;;;17.70;99.90;;;;;;5075252;28;20415;-61
2021/08/19 02:57:22;;;;;;;20.60;16.40;;;17.70;99.90;;;;;;5075273;28;20530;-61
2021/08/19 02:59:48;;;;;;;20.77;16.20;;;17.70;99.90;;;;;;5075101;28;20060;-62
2021/08/19 03:02:13;;;;;;;18.27;14.90;;;17.70;99.90;;;;;;5074915;28;20039;-62
2021/08/19 03:04:39;;;;;;;22.13;15.45;;;17.70;99.90;;;;;;5075131;28;20051;-62
2021/08/19 03:07:07;;;;;;;18.98;13.95;;;17.70;99.90;;;;;;5066974;28;20366;-62
2021/08/19 03:09:32;;;;;;;15.48;12.32;;;17.70;99.90;;;;;;5055094;28;20025;-62
2021/08/19 03:11:58;;;;;;;15.38;12.18;;;17.70;99.90;;;;;;5054835;28;20036;-61
2021/08/19 03:14:24;;;;;;;18.65;13.15;;;17.70;99.90;;;;;;5054673;28;20456;-62
2021/08/19 03:16:49;;;;;;;17.00;12.18;;;17.70;99.90;;;;;;5054860;28;20108;-62
2021/08/19 03:19:15;;;;;;;16.48;13.68;;;17.70;99.90;;;;;;5054799;28;20374;-62
2021/08/19 03:21:40;;;;;;;15.15;11.93;;;17.80;99.90;;;;;;5054726;28;20473;-62
2021/08/19 03:24:06;;;;;;;16.73;12.68;;;17.80;99.90;;;;;;5054800;28;20021;-62
2021/08/19 03:26:32;;;;;;;16.70;12.10;;;17.70;99.90;;;;;;5054733;28;20381;-61
2021/08/19 03:28:58;;;;;;;18.30;13.35;;;17.70;99.90;;;;;;5054693;28;20384;-62
2021/08/19 03:31:25;;;;;;;17.35;13.85;;;17.70;99.90;;;;;;5046176;28;20036;-62
2021/08/19 03:33:51;;;;;;;17.10;14.15;;;17.70;99.90;;;;;;5054602;28;20074;-61
2021/08/19 03:36:16;;;;;;;18.88;15.25;;;17.70;99.90;;;;;;5036610;28;20116;-61
2021/08/19 03:38:43;;;;;;;21.67;16.40;;;17.70;99.90;;;;;;5054527;28;20488;-61
2021/08/19 03:41:09;;;;;;;23.27;17.02;;;17.60;99.90;;;;;;5054276;28;20432;-62
2021/08/19 03:43:34;;;;;;;25.45;18.15;;;17.60;99.90;;;;;;5054259;28;20021;-61
2021/08/19 03:46:00;;;;;;;21.55;15.50;;;17.60;99.90;;;;;;5053912;28;20053;-62
2021/08/19 03:48:25;;;;;;;22.10;15.60;;;17.60;99.90;;;;;;5054256;28;20028;-61
2021/08/19 03:50:51;;;;;;;23.95;17.98;;;17.60;99.90;;;;;;5036393;28;20028;-62
2021/08/19 03:53:17;;;;;;;28.17;18.85;;;17.60;99.90;;;;;;5053959;28;20107;-61
2021/08/19 03:55:44;;;;;;;21.48;15.57;;;17.50;99.90;;;;;;5054203;28;20028;-62
2021/08/19 03:58:14;;;;;;;25.23;18.13;;;17.50;99.90;;;;;;5054015;28;20481;-62
2021/08/19 04:00:39;;;;;;;29.45;20.42;;;17.50;99.90;;;;;;5031821;28;21382;-61
2021/08/19 04:03:05;;;;;;;24.48;17.77;;;17.50;99.90;;;;;;5047388;28;20021;-62
2021/08/19 04:05:30;;;;;;;26.90;18.67;;;17.50;99.90;;;;;;5053161;28;20040;-62
2021/08/19 04:07:56;;;;;;;24.58;18.10;;;17.50;99.90;;;;;;5053512;28;20036;-61
2021/08/19 04:10:21;;;;;;;29.40;19.45;;;17.50;99.90;;;;;;5053810;28;20039;-61
2021/08/19 04:12:47;;;;;;;22.02;17.00;;;17.40;99.90;;;;;;5053615;28;20465;-62
2021/08/19 04:15:13;;;;;;;21.70;16.75;;;17.40;99.90;;;;;;5053804;28;20117;-62
2021/08/19 04:17:39;;;;;;;22.63;16.17;;;17.40;99.90;;;;;;5053600;28;20095;-61
2021/08/19 04:20:06;;;;;;;21.67;17.48;;;17.40;99.90;;;;;;5053573;28;20078;-62
2021/08/19 04:22:32;;;;;;;19.55;16.45;;;17.50;99.90;;;;;;5053438;28;20056;-61
2021/08/19 04:24:57;;;;;;;23.90;15.95;;;17.50;99.90;;;;;;5053607;28;20469;-62
2021/08/19 04:27:23;;;;;;;24.67;18.83;;;17.50;99.90;;;;;;5053403;28;20025;-61
2021/08/19 04:29:48;;;;;;;22.75;17.85;;;17.50;99.90;;;;;;5053462;28;20036;-62
2021/08/19 04:32:14;;;;;;;21.65;16.10;;;17.50;99.90;;;;;;5053189;28;20029;-62
2021/08/19 04:34:40;;;;;;;23.38;17.33;;;17.50;99.90;;;;;;5053383;28;20524;-61
2021/08/19 04:37:06;;;;;;;24.73;17.13;;;17.50;99.90;;;;;;5053324;28;20102;-61
2021/08/19 04:39:31;;;;;;;26.83;19.33;;;17.50;99.90;;;;;;5053188;28;20096;-61
2021/08/19 04:41:57;;;;;;;22.83;17.75;;;17.50;99.90;;;;;;5053165;28;20147;-61
2021/08/19 04:44:22;;;;;;;24.48;17.63;;;17.50;99.90;;;;;;5052944;28;20044;-61
2021/08/19 04:46:48;;;;;;;20.95;16.70;;;17.50;99.90;;;;;;5053276;28;20400;-61
2021/08/19 04:49:13;;;;;;;21.23;16.38;;;17.50;99.90;;;;;;5053136;28;20481;-61
2021/08/19 04:51:39;;;;;;;23.83;17.30;;;17.50;99.90;;;;;;5052749;28;20025;-61
2021/08/19 04:54:05;;;;;;;19.45;15.55;;;17.50;99.90;;;;;;5052684;28;20479;-61
2021/08/19 04:56:38;;;;;;;22.48;16.52;;;17.50;99.90;;;;;;5052794;28;20029;-61
2021/08/19 04:59:04;;;;;;;18.27;15.25;;;17.50;99.90;;;;;;5034538;28;20532;-61
2021/08/19 05:01:30;;;;;;;20.52;14.43;;;17.50;99.90;;;;;;5034729;28;20021;-61
2021/08/19 05:03:58;;;;;;;23.50;15.63;;;17.50;99.90;;;;;;5052879;28;20391;-61
2021/08/19 05:06:24;;;;;;;19.70;14.43;;;17.40;99.90;;;;;;5050423;28;20060;-61
2021/08/19 05:08:50;;;;;;;22.15;15.05;;;17.40;99.90;;;;;;5048424;28;20028;-61
2021/08/19 05:11:15;;;;;;;21.92;15.48;;;17.40;99.90;;;;;;5052514;28;20488;-61
2021/08/19 05:13:41;;;;;;;19.00;15.13;;;17.40;99.90;;;;;;5052757;28;20021;-61
2021/08/19 05:16:06;;;;;;;19.35;15.93;;;17.40;99.90;;;;;;5052787;28;20104;-61
2021/08/19 05:18:32;;;;;;;25.25;16.95;;;17.50;99.90;;;;;;5052637;28;20025;-61
2021/08/19 05:20:57;;;;;;;19.88;15.88;;;17.40;99.90;;;;;;5052598;28;20488;-61
2021/08/19 05:23:23;;;;;;;22.25;16.02;;;17.40;99.90;;;;;;5052743;28;20029;-61
2021/08/19 05:25:48;;;;;;;22.65;15.05;;;17.40;99.90;;;;;;5052558;28;20048;-62
2021/08/19 05:28:14;;;;;;;21.98;15.75;;;17.40;99.90;;;;;;5052572;28;20021;-61
2021/08/19 05:30:39;;;;;;;26.60;17.63;;;17.40;99.90;;;;;;5052579;28;20033;-61
2021/08/19 05:33:05;;;;;;;23.60;16.95;;;17.40;99.90;;;;;;5052300;28;20036;-61
2021/08/19 05:35:30;;;;;;;23.90;16.65;;;17.40;99.90;;;;;;5052603;28;20436;-61
2021/08/19 05:37:56;;;;;;;20.88;14.93;;;17.50;99.90;;;;;;5052578;28;20127;-61
2021/08/19 05:40:21;;;;;;;24.52;18.13;;;17.50;99.90;;;;;;5052394;28;20033;-61
2021/08/19 05:42:47;;;;;;;25.83;17.55;;;17.40;99.90;;;;;;5052509;28;20143;-61
2021/08/19 05:45:12;;;;;;;23.42;16.95;;;17.50;99.90;;;;;;5052313;28;20057;-61
2021/08/19 05:47:38;;;;;;;22.45;16.52;;;17.40;99.90;;;;;;5052662;28;20021;-61
2021/08/19 05:50:10;;;;;;;25.10;18.77;;;17.50;99.90;;;;;;5052494;28;20025;-61
2021/08/19 05:52:36;;;;;;;21.08;16.05;;;17.50;99.90;;;;;;5052279;28;20032;-61
2021/08/19 05:55:01;;;;;;;21.05;16.23;;;17.50;99.90;;;;;;5052313;28;20017;-61
2021/08/19 05:57:27;;;;;;;21.38;16.20;;;17.50;99.90;;;;;;5052569;28;20033;-61
2021/08/19 05:59:52;;;;;;;27.63;19.08;;;17.50;99.90;;;;;;5052406;28;20070;-61
2021/08/19 06:02:18;;;;;;;22.13;15.95;;;17.50;99.90;;;;;;5049765;28;20025;-61
2021/08/19 06:04:43;;;;;;;26.70;17.63;;;17.50;99.90;;;;;;5051649;28;20021;-61
2021/08/19 06:07:09;;;;;;;19.65;16.33;;;17.50;99.90;;;;;;5051401;28;20108;-61
2021/08/19 06:09:35;;;;;;;24.48;16.20;;;17.50;99.90;;;;;;5051455;28;20040;-61
2021/08/19 06:12:01;;;;;;;25.42;16.80;;;17.50;99.90;;;;;;5051575;28;20032;-61
2021/08/19 06:14:26;;;;;;;20.25;15.18;;;17.50;99.90;;;;;;5051588;28;20518;-61
2021/08/19 06:16:52;;;;;;;22.60;16.30;;;17.50;99.90;;;;;;5033527;28;20100;-60
2021/08/19 06:19:17;;;;;;;22.63;15.18;;;17.60;99.90;;;;;;5051281;28;20067;-61
2021/08/19 06:21:43;;;;;;;19.67;14.45;;;17.50;99.90;;;;;;5051361;28;20124;-61
2021/08/19 06:24:08;;;;;;;21.10;16.23;;;17.60;99.90;;;;;;5051230;28;20082;-61
2021/08/19 06:26:34;;;;;;;22.13;15.85;;;17.50;99.90;;;;;;5053868;28;20032;-61
2021/08/19 06:28:59;;;;;;;17.80;15.23;;;17.60;99.90;;;;;;5054973;28;20028;-61
2021/08/19 06:31:25;;;;;;;24.58;16.83;;;17.60;99.90;;;;;;5054817;28;20029;-62
2021/08/19 06:33:50;;;;;;;18.95;14.30;;;17.60;99.90;;;;;;5054706;28;20059;-61
2021/08/19 06:36:16;;;;;;;20.40;15.32;;;17.60;99.90;;;;;;5055196;28;20021;-61
2021/08/19 06:38:42;;;;;;;21.27;16.00;;;17.60;99.90;;;;;;5054965;28;20098;-61
2021/08/19 06:41:07;;;;;;;20.20;14.52;;;17.60;99.90;;;;;;5054767;28;20021;-62
2021/08/19 06:43:33;;;;;;;23.33;15.32;;;17.60;99.90;;;;;;5054742;28;20032;-62
2021/08/19 06:45:58;;;;;;;21.80;17.00;;;17.60;99.90;;;;;;5054444;28;20082;-61
2021/08/19 06:48:25;;;;;;;24.33;14.93;;;17.60;99.90;;;;;;5054661;28;20045;-61
2021/08/19 06:50:50;;;;;;;20.77;15.75;;;17.60;99.90;;;;;;5054521;28;20029;-61
2021/08/19 06:53:16;;;;;;;19.08;15.18;;;17.60;99.90;;;;;;5054204;28;20023;-61
2021/08/19 06:55:41;;;;;;;18.27;14.57;;;17.60;99.90;;;;;;5054586;28;20024;-61
2021/08/19 06:58:07;;;;;;;21.67;15.52;;;17.70;99.90;;;;;;5054035;28;20104;-61
2021/08/19 07:00:33;;;;;;;21.13;16.02;;;17.70;99.90;;;;;;5054007;28;20460;-61
2021/08/19 07:02:59;;;;;;;23.20;17.30;;;17.70;99.90;;;;;;5053621;28;20024;-61
2021/08/19 07:05:25;;;;;;;20.33;14.70;;;17.70;99.90;;;;;;5053606;28;20021;-61
2021/08/19 07:07:54;;;;;;;25.60;17.02;;;17.70;99.90;;;;;;5053595;28;20024;-61
2021/08/19 07:10:20;;;;;;;17.33;14.20;;;17.70;99.90;;;;;;5054074;28;20025;-61
2021/08/19 07:12:45;;;;;;;18.65;14.43;;;17.70;99.90;;;;;;5053510;28;20029;-61
2021/08/19 07:15:11;;;;;;;21.02;15.75;;;17.60;99.90;;;;;;5035728;28;20021;-61
2021/08/19 07:17:37;;;;;;;20.88;15.20;;;17.70;99.90;;;;;;5054098;28;20049;-61
2021/08/19 07:20:03;;;;;;;20.30;16.00;;;17.70;99.90;;;;;;5053489;28;20029;-61
2021/08/19 07:22:28;;;;;;;20.63;15.65;;;17.70;99.90;;;;;;5053095;28;20032;-62
2021/08/19 07:24:54;;;;;;;19.55;14.95;;;17.70;99.90;;;;;;5053455;28;20029;-61
2021/08/19 07:27:20;;;;;;;20.98;15.75;;;17.70;99.90;;;;;;5035725;28;20025;-61
2021/08/19 07:29:45;;;;;;;21.63;16.88;;;17.70;99.90;;;;;;5053791;28;20388;-61
2021/08/19 07:32:11;;;;;;;18.65;15.15;;;17.70;99.90;;;;;;5053491;28;20465;-61
2021/08/19 07:34:36;;;;;;;23.10;16.52;;;17.70;99.90;;;;;;5052878;28;20021;-62
2021/08/19 07:37:02;;;;;;;23.50;15.68;;;17.80;99.90;;;;;;5053757;28;20057;-61
2021/08/19 07:39:28;;;;;;;17.02;14.02;;;17.80;99.90;;;;;;5051678;28;20029;-61
2021/08/19 07:41:54;;;;;;;18.50;14.25;;;17.80;99.90;;;;;;5035768;28;20035;-61
2021/08/19 07:44:19;;;;;;;17.17;12.90;;;17.80;99.90;;;;;;5053964;28;20116;-61
2021/08/19 07:46:51;;;;;;;19.10;13.65;;;17.80;99.90;;;;;;5054262;28;20465;-61
2021/08/19 07:49:20;;;;;;;17.58;14.02;;;17.90;99.90;;;;;;5054145;28;20060;-61
2021/08/19 07:51:45;;;;;;;22.65;15.10;;;17.90;99.90;;;;;;5052418;28;20029;-61
2021/08/19 07:54:11;;;;;;;18.83;14.50;;;17.90;99.90;;;;;;5034189;28;20048;-61
2021/08/19 07:56:36;;;;;;;14.98;12.43;;;17.90;99.90;;;;;;5033485;28;20096;-62
2021/08/19 07:59:02;;;;;;;17.67;13.70;;;17.90;99.90;;;;;;5032266;28;20029;-62
2021/08/19 08:01:27;;;;;;;17.67;14.60;;;17.90;99.90;;;;;;5033518;28;20026;-61
2021/08/19 08:03:53;;;;;;;17.00;14.00;;;17.90;99.90;;;;;;5032952;28;20040;-62
2021/08/19 08:06:18;;;;;;;21.63;14.80;;;17.90;99.90;;;;;;5033031;28;20029;-61
2021/08/19 08:08:45;;;;;;;17.85;13.82;;;17.90;99.90;;;;;;5033226;28;20393;-62
2021/08/19 08:11:13;;;;;;;18.67;13.77;;;17.90;99.90;;;;;;5033121;28;20071;-61
2021/08/19 08:16:32;;;;;;;18.23;13.65;;;17.90;99.90;;;;;;5025379;28;20026;-61
2021/08/19 08:19:01;;;;;;;19.27;12.65;;;17.90;99.90;;;;;;5033237;28;20037;-62
2021/08/19 08:21:40;;;;;;;17.50;11.88;;;18.00;99.90;;;;;;5032963;28;20025;-61
2021/08/19 08:24:06;;;;;;;19.38;13.55;;;18.00;99.90;;;;;;5031301;28;20444;-61
2021/08/19 08:26:31;;;;;;;19.35;14.52;;;18.00;99.90;;;;;;5033031;28;20524;-61
2021/08/19 08:28:57;;;;;;;18.63;12.90;;;18.10;99.90;;;;;;5032870;28;20033;-62
2021/08/19 08:31:23;;;;;;;18.33;14.02;;;18.10;99.90;;;;;;5052334;28;20082;-62
2021/08/19 08:33:50;;;;;;;18.38;12.60;;;18.20;99.90;;;;;;5052677;28;20021;-62
2021/08/19 08:36:16;;;;;;;14.60;11.48;;;18.20;99.90;;;;;;5052565;28;20027;-62
2021/08/19 08:38:44;;;;;;;18.33;14.23;;;18.30;99.90;;;;;;5052866;28;20021;-61
2021/08/19 08:41:10;;;;;;;16.73;12.10;;;18.20;99.90;;;;;;5052663;28;20024;-62
2021/08/19 08:43:37;;;;;;;13.18;11.02;;;18.30;99.90;;;;;;5052381;28;20021;-62
2021/08/19 08:46:06;;;;;;;16.45;12.15;;;18.30;99.90;;;;;;5037046;28;20041;-62
2021/08/19 08:48:32;;;;;;;17.77;11.57;;;18.30;99.90;;;;;;5032465;28;20036;-62
2021/08/19 08:50:58;;;;;;;15.30;12.40;;;18.30;99.90;;;;;;5032339;28;20048;-62
2021/08/19 08:53:24;;;;;;;16.45;12.23;;;18.30;99.90;;;;;;5018391;28;20041;-62
2021/08/19 08:55:50;;;;;;;13.98;11.32;;;18.40;99.90;;;;;;5013401;28;20037;-61
2021/08/19 08:58:16;;;;;;;17.65;13.43;;;18.50;99.90;;;;;;5016635;28;20025;-61
2021/08/19 09:00:43;;;;;;;15.70;13.10;;;18.50;99.90;;;;;;5014778;28;20108;-62
2021/08/19 09:03:10;;;;;;;15.90;13.32;;;18.60;99.90;;;;;;5032133;28;20032;-62
2021/08/19 09:05:47;;;;;;;19.42;13.15;;;18.60;99.90;;;;;;5032672;28;20100;-62
2021/08/19 09:08:21;;;;;;;15.93;13.85;;;18.60;99.90;;;;;;5032613;28;20096;-62
2021/08/19 09:10:49;;;;;;;17.52;12.18;;;18.60;99.90;;;;;;5032805;28;20096;-62
2021/08/19 09:13:17;;;;;;;16.95;13.00;;;18.60;99.90;;;;;;5032797;28;20072;-62
2021/08/19 09:15:45;;;;;;;14.43;11.70;;;18.60;99.90;;;;;;5032745;28;20025;-62
2021/08/19 09:18:12;;;;;;;17.45;12.68;;;18.70;99.90;;;;;;5032441;28;20017;-62
2021/08/19 09:20:41;;;;;;;15.65;11.63;;;18.70;99.90;;;;;;5032175;28;20037;-62
2021/08/19 09:23:13;;;;;;;14.63;11.63;;;18.70;99.90;;;;;;5031878;28;20489;-62
2021/08/19 09:25:42;;;;;;;15.95;11.50;;;18.70;99.90;;;;;;5032238;28;20090;-62
2021/08/19 09:28:12;;;;;;;16.05;12.40;;;18.70;99.90;;;;;;5029828;28;20025;-62
2021/08/19 09:30:40;;;;;;;15.98;11.45;;;18.70;99.90;;;;;;5032539;28;20025;-62
2021/08/19 09:33:07;;;;;;;13.07;10.60;;;18.70;99.90;;;;;;5032362;28;20044;-62
2021/08/19 09:35:34;;;;;;;15.20;10.98;;;18.70;99.90;;;;;;5032595;28;20106;-62
2021/08/19 09:38:11;;;;;;;14.38;10.00;;;18.70;99.90;;;;;;5032175;28;20021;-62
2021/08/19 09:40:38;;;;;;;13.75;11.30;;;18.70;99.90;;;;;;5032564;28;20500;-62
2021/08/19 09:43:04;;;;;;;14.68;9.43;;;18.70;99.90;;;;;;5032301;28;20442;-62
2021/08/19 09:45:30;;;;;;;11.40;9.15;;;18.60;99.90;;;;;;5042858;28;20044;-62
2021/08/19 09:48:07;;;;;;;13.00;10.60;;;18.70;99.90;;;;;;5052112;28;20387;-62
2021/08/19 09:50:33;;;;;;;11.95;9.48;;;18.70;99.90;;;;;;5052211;28;20128;-62
2021/08/19 09:53:15;;;;;;;12.27;8.70;;;18.70;99.90;;;;;;5040673;28;20021;-62
2021/08/19 09:55:41;;;;;;;12.13;8.40;;;18.70;99.90;;;;;;5014997;28;20047;-62
2021/08/19 09:58:07;;;;;;;10.70;8.13;;;18.60;99.90;;;;;;5014317;28;20025;-62
2021/08/19 10:00:37;;;;;;;10.38;8.90;;;18.60;99.90;;;;;;5032917;28;20033;-62
2021/08/19 10:03:03;;;;;;;10.60;8.75;;;18.50;99.90;;;;;;5035522;28;20034;-62
2021/08/19 10:05:29;;;;;;;13.30;9.68;;;18.50;99.90;;;;;;5036410;28;20108;-62
2021/08/19 10:07:56;;;;;;;10.88;7.90;;;18.50;99.90;;;;;;5050506;28;20064;-62
2021/08/19 10:10:22;;;;;;;10.65;9.02;;;18.50;99.90;;;;;;5055916;28;20072;-62
2021/08/19 10:12:48;;;;;;;9.90;8.90;;;18.50;99.90;;;;;;5055322;28;20056;-62
2021/08/19 10:15:15;;;;;;;13.23;9.35;;;18.50;99.90;;;;;;5055624;28;20033;-62
2021/08/19 10:17:50;;;;;;;9.80;8.60;;;18.40;99.90;;;;;;5055608;28;20123;-62
2021/08/19 10:20:20;;;;;;;11.18;9.52;;;18.50;99.90;;;;;;5055736;28;20029;-62
2021/08/19 10:22:49;;;;;;;10.00;8.95;;;18.50;99.90;;;;;;5055908;28;20037;-62
2021/08/19 10:25:17;;;;;;;9.48;8.38;;;18.50;99.90;;;;;;5055404;28;20029;-62
2021/08/19 10:27:43;;;;;;;12.68;9.50;;;18.50;99.90;;;;;;5055928;28;20391;-62
2021/08/19 10:30:40;;;;;;;11.18;10.07;;;18.50;99.90;;;;;;5037390;28;20488;-62
2021/08/19 10:33:05;;;;;;;11.07;9.20;;;18.60;99.90;;;;;;5036830;28;20370;-62
2021/08/19 10:35:31;;;;;;;12.50;10.27;;;18.60;99.90;;;;;;5054839;28;20043;-62
2021/08/19 10:38:02;;;;;;;10.30;8.95;;;18.70;99.90;;;;;;5054316;28;20025;-62
2021/08/19 10:40:36;;;;;;;10.95;9.20;;;18.70;99.90;;;;;;5055038;28;20389;-62
2021/08/19 10:43:30;;;;;;;11.60;10.10;;;18.70;99.90;;;;;;5055426;28;20029;-62
2021/08/19 10:46:10;;;;;;;12.23;10.10;;;18.60;99.90;;;;;;5054025;28;20041;-62
2021/08/19 10:48:52;;;;;;;10.85;9.73;;;18.60;99.90;;;;;;5054384;28;20017;-62
2021/08/19 10:51:18;;;;;;;9.95;8.95;;;18.50;99.90;;;;;;5054416;28;20108;-62
2021/08/19 10:53:44;;;;;;;10.95;9.75;;;18.50;99.90;;;;;;5053526;28;20024;-62
2021/08/19 10:56:10;;;;;;;14.20;10.68;;;18.50;99.90;;;;;;5051863;28;20021;-62
2021/08/19 10:59:08;;;;;;;13.38;11.35;;;18.60;99.90;;;;;;5054847;28;20036;-61
2021/08/19 11:01:50;;;;;;;14.57;11.05;;;18.60;99.90;;;;;;5036036;28;20417;-62
2021/08/19 11:04:42;;;;;;;13.30;10.13;;;18.60;99.90;;;;;;5055058;28;20029;-62
2021/08/19 11:07:09;;;;;;;11.15;9.35;;;18.50;99.90;;;;;;5028424;28;20028;-62
2021/08/19 11:09:35;;;;;;;13.43;10.00;;;18.50;99.90;;;;;;5044879;28;20029;-61
2021/08/19 11:12:07;;;;;;;12.07;10.10;;;18.50;99.90;;;;;;5054263;28;20036;-62
2021/08/19 11:14:32;;;;;;;12.93;9.80;;;18.60;99.90;;;;;;5053478;28;20083;-62
2021/08/19 11:17:00;;;;;;;12.95;10.05;;;18.50;99.90;;;;;;5053448;28;20025;-61
2021/08/19 11:19:28;;;;;;;9.77;8.85;;;18.50;99.90;;;;;;5053749;28;20108;-62
2021/08/19 11:22:02;;;;;;;10.20;9.02;;;18.50;99.90;;;;;;5051725;28;20033;-62
2021/08/19 11:24:31;;;;;;;10.43;9.10;;;18.50;99.90;;;;;;5050796;28;20028;-62
2021/08/19 11:26:57;;;;;;;11.73;10.52;;;18.50;99.90;;;;;;5052144;28;20448;-62
2021/08/19 11:29:39;;;;;;;11.65;10.45;;;18.50;99.80;;;;;;5051988;28;20596;-62
2021/08/19 11:32:07;;;;;;;11.80;9.05;;;18.50;99.80;;;;;;5052535;28;20049;-62
2021/08/19 11:34:32;;;;;;;12.07;9.60;;;18.60;99.90;;;;;;5052023;28;20030;-62
2021/08/19 11:36:58;;;;;;;11.65;9.65;;;18.60;99.90;;;;;;5034998;28;20380;-62
2021/08/19 11:39:29;;;;;;;9.55;8.55;;;18.60;99.90;;;;;;5053522;28;20029;-62
2021/08/19 11:42:04;;;;;;;9.75;8.85;;;18.60;99.90;;;;;;5053389;28;20547;-62
2021/08/19 11:44:31;;;;;;;10.27;8.95;;;18.70;99.90;;;;;;5052739;28;20031;-62
2021/08/19 11:47:05;;;;;;;10.10;9.07;;;18.60;99.80;;;;;;5051957;28;20079;-62
2021/08/19 11:49:31;;;;;;;11.02;8.25;;;18.70;99.70;;;;;;5052865;28;20025;-62
2021/08/19 11:52:15;;;;;;;12.85;10.93;;;18.70;99.60;;;;;;5052794;28;20434;-62
2021/08/19 11:54:43;;;;;;;13.95;10.15;;;18.80;99.40;;;;;;5051460;28;20488;-62
2021/08/19 11:57:20;;;;;;;11.45;10.25;;;18.80;99.40;;;;;;5053089;28;20021;-62
2021/08/19 12:00:02;;;;;;;11.20;8.95;;;18.80;99.30;;;;;;5053345;28;20072;-62
2021/08/19 12:02:28;;;;;;;13.15;9.32;;;18.80;99.10;;;;;;5053534;28;20021;-62
2021/08/19 12:05:07;;;;;;;10.30;8.77;;;18.80;99.00;;;;;;5053355;28;20519;-62
2021/08/19 12:07:34;;;;;;;11.10;9.90;;;18.80;99.00;;;;;;5053569;28;20030;-62
2021/08/19 12:10:01;;;;;;;11.07;8.80;;;18.80;98.80;;;;;;5052899;28;20119;-62
2021/08/19 12:12:27;;;;;;;9.90;8.77;;;18.80;98.60;;;;;;5052863;28;20029;-62
2021/08/19 12:14:54;;;;;;;12.85;9.57;;;18.80;98.50;;;;;;5053164;28;20009;-62
2021/08/19 12:17:20;;;;;;;11.10;7.30;;;18.80;98.30;;;;;;5052120;28;20031;-62
2021/08/19 12:19:45;;;;;;;10.65;7.45;;;18.90;98.30;;;;;;5052145;28;20028;-62
2021/08/19 12:22:11;;;;;;;10.68;8.35;;;18.90;98.20;;;;;;5052891;28;20059;-62
2021/08/19 12:24:42;;;;;;;13.07;9.07;;;19.00;98.10;;;;;;5052149;28;20112;-62
2021/08/19 12:27:09;;;;;;;8.55;7.63;;;19.00;98.00;;;;;;5053368;28;20025;-62
2021/08/19 12:29:56;;;;;;;9.52;8.52;;;19.00;97.90;;;;;;5053236;28;20032;-63
2021/08/19 12:32:26;;;;;;;9.57;7.75;;;19.00;97.70;;;;;;5053266;28;20021;-62